Bella Coola, Canada
Current Conditions -  °F | °C
As of 4:00 PM on Monday 20 Oct 2014 (Local Time) from CBBC Reporting Station
Few Clouds Few Clouds  
Wind Chill: 55°   Ceiling: Unl
Heat Index: 55°   Visibility: 9mi
Dew Point: 50°   Wind: 7mph
Humidity: 82%   Direction: 220°SW
Pressure: 29.62"   Gusts: 17mph
Location:  52.37°N, 126.75°W
Report Text: CBBC 202300Z AUTO 22006G15KT 170V260 9SM FEW020 13/10 A2962 RMK PRESFR TS/LTNG TEMPO UNAVBL SLP032 DENSITY ALT 200FT
Loading
Personal Weather Stations






























Interactive Weather Map
Tropical Storm Tracking
New forecast layout! Learn more

10-Day Weather Forecast

Advertisements
Track Severe Weather on mobile